Time;durP1;ratioP1;P1;durP2;ratioP2;P2;SDS_P1;SDS_P2;PMS_P1;PMS_P2;Temp;Humidity;BMP_temperature;BMP_pressure;BME280_temperature;BME280_humidity;BME280_pressure;Samples;Min_cycle;Max_cycle;Signal;HPM_P1;HPM_P2
2022/02/15 00:02:17;;;;;;;4.13;2.10;;;;;;;7.74;86.95;95599.19;5038396;28;20201;-71
2022/02/15 00:04:44;;;;;;;5.73;2.60;;;;;;;7.80;87.48;95601.94;5038625;28;20201;-71
2022/02/15 00:07:10;;;;;;;9.43;2.60;;;;;;;7.67;87.89;95603.53;5039013;28;20205;-71
2022/02/15 00:09:37;;;;;;;3.57;2.10;;;;;;;7.64;88.29;95615.16;5038778;28;20915;-71
2022/02/15 00:12:03;;;;;;;9.17;2.63;;;;;;;7.65;88.02;95614.19;5038706;28;20228;-71
2022/02/15 00:14:30;;;;;;;6.80;2.50;;;;;;;7.71;88.29;95608.22;5038415;28;20264;-71
2022/02/15 00:16:58;;;;;;;6.03;2.67;;;;;;;7.86;87.81;95611.72;5039200;28;20209;-71
2022/02/15 00:19:24;;;;;;;4.57;2.50;;;;;;;7.79;87.47;95608.19;5038091;28;20236;-70
2022/02/15 00:21:50;;;;;;;4.17;2.43;;;;;;;7.82;87.21;95605.22;5038801;28;20201;-71
2022/02/15 00:24:17;;;;;;;4.57;1.83;;;;;;;7.88;86.67;95605.31;5038099;28;20197;-70
2022/02/15 00:26:43;;;;;;;2.93;1.73;;;;;;;7.90;86.61;95599.91;5038823;28;20201;-71
2022/02/15 00:29:10;;;;;;;3.70;2.13;;;;;;;7.93;86.95;95602.19;5038520;28;20205;-71
2022/02/15 00:31:36;;;;;;;3.50;2.03;;;;;;;7.97;86.74;95593.78;5038532;28;20221;-70
2022/02/15 00:34:04;;;;;;;6.13;2.07;;;;;;;7.94;87.09;95601.16;5037473;28;20212;-70
2022/02/15 00:36:31;;;;;;;5.87;3.33;;;;;;;7.80;87.40;95607.19;5038347;28;20260;-71
2022/02/15 00:38:57;;;;;;;6.27;2.67;;;;;;;7.84;87.50;95608.47;5038574;28;20215;-70
2022/02/15 00:41:24;;;;;;;3.97;2.17;;;;;;;7.88;86.47;95600.06;5038422;28;20221;-71
2022/02/15 00:43:50;;;;;;;8.77;3.33;;;;;;;7.73;87.24;95615.94;5037288;28;20298;-71
2022/02/15 00:46:17;;;;;;;2.67;1.97;;;;;;;7.71;87.75;95613.47;5038469;28;20201;-71
2022/02/15 00:48:43;;;;;;;4.47;2.07;;;;;;;7.79;87.41;95608.19;5038046;28;20216;-71
2022/02/15 00:51:11;;;;;;;3.97;1.77;;;;;;;7.90;87.73;95608.59;5037874;28;20225;-71
2022/02/15 00:53:37;;;;;;;5.13;2.57;;;;;;;7.66;87.53;95610.59;5037569;28;20197;-71
2022/02/15 00:56:05;;;;;;;6.60;2.20;;;;;;;7.75;88.04;95614.78;5037729;28;20209;-71
2022/02/15 00:58:31;;;;;;;4.77;2.40;;;;;;;7.71;87.66;95610.84;5037524;28;20200;-71
2022/02/15 01:00:58;;;;;;;4.73;1.60;;;;;;;7.68;87.81;95611.22;5037088;28;20221;-71
2022/02/15 01:03:24;;;;;;;4.10;1.80;;;;;;;7.77;87.58;95612.78;5037157;28;20205;-71
2022/02/15 01:05:51;;;;;;;4.23;2.23;;;;;;;7.71;87.60;95620.53;5037620;28;20197;-71
2022/02/15 01:08:19;;;;;;;3.33;1.97;;;;;;;8.03;87.26;95616.69;5038016;28;20208;-71
2022/02/15 01:10:46;;;;;;;2.27;1.77;;;;;;;7.90;87.09;95615.63;5037690;28;20227;-71
2022/02/15 01:13:13;;;;;;;3.20;1.70;;;;;;;7.78;87.58;95624.91;5036680;28;20208;-71
2022/02/15 01:15:39;;;;;;;6.23;2.70;;;;;;;7.60;88.77;95627.00;5037303;28;20692;-71
2022/02/15 01:18:06;;;;;;;3.60;1.77;;;;;;;7.61;89.32;95628.63;5037321;28;20468;-71
2022/02/15 01:20:32;;;;;;;6.77;2.20;;;;;;;7.66;88.64;95631.56;5037437;28;20579;-71
2022/02/15 01:22:59;;;;;;;3.37;2.17;;;;;;;7.51;90.29;95638.53;5036670;28;20216;-71
2022/02/15 01:25:27;;;;;;;3.50;1.93;;;;;;;7.55;90.59;95626.69;5037409;28;20669;-71
2022/02/15 01:27:54;;;;;;;6.93;2.60;;;;;;;7.28;91.58;95636.88;5037670;28;20209;-71
2022/02/15 01:30:20;;;;;;;3.50;2.13;;;;;;;7.52;90.51;95634.09;5037142;28;20225;-71
2022/02/15 01:32:47;;;;;;;5.43;2.43;;;;;;;7.48;91.47;95636.22;5036170;28;20225;-71
2022/02/15 01:35:14;;;;;;;4.97;2.60;;;;;;;7.58;90.85;95634.22;5037178;28;21261;-71
2022/02/15 01:37:40;;;;;;;7.23;3.67;;;;;;;7.39;91.09;95634.63;5036973;28;20202;-71
2022/02/15 01:40:08;;;;;;;6.80;2.73;;;;;;;7.54;90.90;95629.50;5036832;28;21300;-71
2022/02/15 01:42:37;;;;;;;5.27;2.83;;;;;;;7.66;91.18;95634.19;5036133;28;20204;-71
2022/02/15 01:45:04;;;;;;;4.30;2.73;;;;;;;7.60;90.45;95631.41;5036890;28;20202;-71
2022/02/15 01:47:32;;;;;;;7.03;3.57;;;;;;;7.60;90.47;95627.00;5037165;28;20209;-71
2022/02/15 01:49:59;;;;;;;4.77;2.50;;;;;;;7.55;91.34;95624.06;5037210;28;20221;-70
2022/02/15 01:52:26;;;;;;;5.47;2.33;;;;;;;7.27;92.42;95622.94;5036029;28;20232;-71
2022/02/15 01:54:54;;;;;;;6.73;2.90;;;;;;;7.43;92.23;95615.00;5037050;28;20590;-71
2022/02/15 01:57:22;;;;;;;5.93;3.10;;;;;;;7.49;92.01;95613.47;5037262;28;20201;-71
2022/02/15 01:59:54;;;;;;;9.87;3.97;;;;;;;7.56;92.18;95617.84;5036626;28;20221;-71
2022/02/15 02:02:20;;;;;;;6.20;2.83;;;;;;;7.33;92.23;95618.78;5036546;28;20204;-71
2022/02/15 02:07:31;;;;;;;6.97;3.30;;;;;;;7.37;92.22;95625.34;5036318;28;20270;-71
2022/02/15 02:09:58;;;;;;;16.73;3.13;;;;;;;7.22;92.69;95628.84;5036602;28;20232;-71
2022/02/15 02:12:24;;;;;;;8.60;4.33;;;;;;;7.32;92.13;95625.84;5036033;28;20681;-71
2022/02/15 02:15:00;;;;;;;6.93;4.30;;;;;;;7.51;92.03;95628.03;5040398;28;20201;-71
2022/02/15 02:17:27;;;;;;;7.70;3.10;;;;;;;7.40;91.93;95625.00;5040581;28;20197;-71
2022/02/15 02:19:54;;;;;;;4.97;3.07;;;;;;;7.44;92.09;95627.09;5040296;28;20781;-71
2022/02/15 02:22:22;;;;;;;5.10;2.90;;;;;;;7.25;93.00;95631.94;5040228;28;20208;-71
2022/02/15 02:24:49;;;;;;;4.20;2.30;;;;;;;7.23;92.55;95638.34;5040393;28;20196;-71
2022/02/15 02:27:18;;;;;;;4.37;2.23;;;;;;;7.15;93.32;95628.72;5041055;28;20205;-71
2022/02/15 02:29:45;;;;;;;7.73;3.27;;;;;;;7.38;91.98;95632.19;5040845;28;20221;-71
2022/02/15 02:32:11;;;;;;;8.43;3.30;;;;;;;7.23;92.19;95622.63;5039951;28;20221;-71
2022/02/15 02:34:38;;;;;;;8.00;3.67;;;;;;;7.22;92.64;95623.59;5040439;28;20229;-71
2022/02/15 02:37:04;;;;;;;7.63;3.17;;;;;;;7.45;91.78;95633.97;5040352;28;20575;-71
2022/02/15 02:39:32;;;;;;;7.73;3.77;;;;;;;7.46;91.67;95627.75;5040498;28;20315;-71
2022/02/15 02:41:59;;;;;;;8.07;4.07;;;;;;;7.29;91.59;95630.59;5040336;28;20197;-71
2022/02/15 02:44:25;;;;;;;9.47;3.20;;;;;;;7.30;91.75;95635.66;5039842;28;20680;-71
2022/02/15 02:46:52;;;;;;;8.97;4.23;;;;;;;7.27;91.32;95635.22;5040476;28;20205;-71
2022/02/15 02:49:18;;;;;;;8.77;3.10;;;;;;;7.25;91.57;95639.00;5039897;28;20256;-71
2022/02/15 02:51:45;;;;;;;6.00;3.10;;;;;;;7.47;90.43;95634.63;5040085;28;20224;-71
2022/02/15 02:54:11;;;;;;;8.07;2.60;;;;;;;7.41;91.03;95637.91;5039815;28;20205;-71
2022/02/15 02:56:39;;;;;;;10.30;4.23;;;;;;;7.60;90.98;95636.66;5039941;28;20212;-71
2022/02/15 02:59:05;;;;;;;10.23;3.37;;;;;;;7.16;91.92;95650.50;5039959;28;20197;-71
2022/02/15 03:01:32;;;;;;;5.33;2.97;;;;;;;7.27;91.70;95643.09;5040393;28;20205;-71
2022/02/15 03:03:58;;;;;;;4.73;2.70;;;;;;;7.22;91.78;95648.03;5038972;28;20208;-71
2022/02/15 03:06:26;;;;;;;9.23;4.50;;;;;;;7.13;92.12;95649.03;5039796;28;20212;-71
2022/02/15 03:08:53;;;;;;;4.47;2.93;;;;;;;7.20;91.59;95654.41;5039721;28;20332;-71
2022/02/15 03:11:19;;;;;;;8.37;3.77;;;;;;;7.35;90.95;95653.53;5039934;28;20231;-71
2022/02/15 03:13:47;;;;;;;9.63;4.17;;;;;;;7.41;91.67;95653.66;5038931;28;20225;-71
2022/02/15 03:16:13;;;;;;;5.00;3.53;;;;;;;7.36;90.67;95660.41;5039722;28;20696;-71
2022/02/15 03:18:40;;;;;;;4.40;2.57;;;;;;;7.20;92.06;95654.41;5039863;28;20209;-71
2022/02/15 03:21:07;;;;;;;7.63;3.37;;;;;;;7.11;92.39;95666.72;5039448;28;20228;-71
2022/02/15 03:23:33;;;;;;;5.20;3.20;;;;;;;7.16;92.18;95672.28;5038595;28;20208;-71
2022/02/15 03:26:00;;;;;;;7.50;2.87;;;;;;;7.13;92.10;95664.75;5039538;28;20198;-71
2022/02/15 03:28:26;;;;;;;3.77;2.10;;;;;;;7.30;91.53;95669.75;5039599;28;20208;-71
2022/02/15 03:30:54;;;;;;;7.67;3.20;;;;;;;7.42;91.79;95673.63;5039259;28;20241;-71
2022/02/15 03:33:21;;;;;;;5.70;3.17;;;;;;;7.25;92.12;95673.06;5038785;28;20213;-71
2022/02/15 03:35:47;;;;;;;8.40;4.23;;;;;;;6.91;93.11;95670.72;5038918;28;20197;-71
2022/02/15 03:38:14;;;;;;;11.20;3.73;;;;;;;6.90;93.96;95665.66;5039382;28;20205;-71
2022/02/15 03:43:24;;;;;;;7.23;3.70;;;;;;;7.01;93.50;95671.34;5038586;28;20212;-71
2022/02/15 03:45:51;;;;;;;7.67;4.10;;;;;;;7.19;92.67;95678.97;5035798;28;20205;-71
2022/02/15 03:48:18;;;;;;;6.97;3.33;;;;;;;7.31;92.44;95679.25;5039186;28;20205;-71
2022/02/15 03:50:45;;;;;;;5.90;2.60;;;;;;;7.14;92.47;95681.28;5038927;28;20247;-71
2022/02/15 03:53:12;;;;;;;8.13;3.73;;;;;;;7.05;93.11;95684.91;5038459;28;20221;-71
2022/02/15 03:55:39;;;;;;;9.87;3.50;;;;;;;7.16;92.32;95688.00;5038597;28;20282;-71
2022/02/15 03:58:05;;;;;;;8.87;4.13;;;;;;;7.27;92.52;95690.25;5038704;28;21175;-70
2022/02/15 04:00:32;;;;;;;6.47;2.97;;;;;;;7.27;91.78;95692.88;5039081;28;20236;-71
2022/02/15 04:02:58;;;;;;;4.57;2.20;;;;;;;6.94;93.38;95698.41;5038321;28;20198;-71
2022/02/15 04:05:26;;;;;;;6.50;2.57;;;;;;;7.12;93.27;95688.50;5039041;28;20327;-71
2022/02/15 04:07:53;;;;;;;2.27;1.73;;;;;;;6.84;93.94;95690.69;5038807;28;20216;-71
2022/02/15 04:10:19;;;;;;;7.93;2.63;;;;;;;7.15;92.85;95690.78;5038125;28;20228;-71
2022/02/15 04:12:46;;;;;;;6.00;3.13;;;;;;;6.98;93.19;95692.63;5038163;28;20252;-71
2022/02/15 04:15:13;;;;;;;10.00;3.10;;;;;;;7.07;93.54;95691.63;5038742;28;20197;-71
2022/02/15 04:17:40;;;;;;;4.57;2.23;;;;;;;7.12;92.78;95691.94;5038038;28;20216;-71
2022/02/15 04:20:08;;;;;;;5.27;2.97;;;;;;;7.24;92.40;95698.44;5038800;28;20217;-71
2022/02/15 04:22:35;;;;;;;6.20;2.90;;;;;;;7.02;93.63;95714.06;5038220;28;20212;-71
2022/02/15 04:25:02;;;;;;;7.10;3.13;;;;;;;7.08;92.73;95722.06;5038299;28;20197;-71
2022/02/15 04:27:30;;;;;;;6.93;3.23;;;;;;;7.16;92.79;95724.66;5038576;28;20202;-71
2022/02/15 04:29:56;;;;;;;5.47;2.93;;;;;;;7.01;93.33;95728.16;5038391;28;20221;-71
2022/02/15 04:32:23;;;;;;;5.63;3.00;;;;;;;7.01;93.21;95715.06;5037411;28;21000;-71
2022/02/15 04:34:50;;;;;;;7.93;4.10;;;;;;;7.11;93.14;95723.53;5038236;28;20201;-71
2022/02/15 04:37:16;;;;;;;5.83;3.33;;;;;;;6.97;93.36;95726.84;5037537;28;20210;-71
2022/02/15 04:39:44;;;;;;;7.20;3.30;;;;;;;7.17;93.31;95733.38;5038300;28;20315;-71
2022/02/15 04:42:11;;;;;;;7.13;3.67;;;;;;;6.97;92.99;95722.41;5037773;28;20680;-71
2022/02/15 04:44:38;;;;;;;4.67;2.37;;;;;;;6.86;94.18;95729.81;5037837;28;21315;-71
2022/02/15 04:47:05;;;;;;;10.20;2.93;;;;;;;7.00;93.73;95734.38;5038364;28;20205;-71
2022/02/15 04:49:32;;;;;;;6.33;3.13;;;;;;;6.91;94.02;95724.91;5038209;28;20225;-71
2022/02/15 04:51:58;;;;;;;4.67;2.30;;;;;;;6.86;94.23;95732.44;5037559;28;20319;-71
2022/02/15 04:54:25;;;;;;;6.03;3.07;;;;;;;6.93;93.74;95733.41;5037635;28;20209;-71
2022/02/15 04:56:54;;;;;;;7.30;3.53;;;;;;;7.10;93.77;95719.28;5038073;28;20658;-71
2022/02/15 04:59:21;;;;;;;7.77;3.60;;;;;;;6.94;94.00;95735.06;5037375;28;20212;-71
2022/02/15 05:01:48;;;;;;;7.40;4.13;;;;;;;6.88;93.94;95740.94;5037649;28;20201;-71
2022/02/15 05:06:55;;;;;;;6.23;2.83;;;;;;;6.89;93.88;95740.78;5037379;28;20212;-71
2022/02/15 05:09:21;;;;;;;5.20;2.97;;;;;;;7.02;93.02;95745.50;5037717;28;20206;-71
2022/02/15 05:11:48;;;;;;;8.93;3.40;;;;;;;7.02;93.43;95745.50;5037838;28;20197;-71
2022/02/15 05:14:16;;;;;;;7.80;3.57;;;;;;;7.20;93.25;95746.13;5036550;28;20721;-71
2022/02/15 05:16:42;;;;;;;12.17;5.50;;;;;;;6.83;94.21;95741.44;5037478;28;20575;-71
2022/02/15 05:19:09;;;;;;;19.93;5.97;;;;;;;6.99;93.49;95751.09;5036792;28;20220;-71
2022/02/15 05:21:35;;;;;;;11.93;6.07;;;;;;;7.01;93.58;95754.34;5037379;28;20664;-71
2022/02/15 05:24:02;;;;;;;12.47;5.20;;;;;;;7.07;93.45;95758.94;5036316;28;20968;-71
2022/02/15 05:26:29;;;;;;;20.47;9.27;;;;;;;7.11;92.65;95755.78;5037604;28;20201;-71
2022/02/15 05:28:56;;;;;;;11.13;5.17;;;;;;;7.07;93.30;95758.94;5037383;28;20212;-71
2022/02/15 05:31:24;;;;;;;12.93;5.40;;;;;;;7.39;92.72;95757.81;5037005;28;20232;-71
2022/02/15 05:33:50;;;;;;;8.23;4.23;;;;;;;7.11;93.10;95765.47;5036310;28;20217;-71
2022/02/15 05:36:17;;;;;;;12.87;4.80;;;;;;;7.20;92.44;95761.84;5037427;28;20571;-71
2022/02/15 05:38:43;;;;;;;11.33;4.93;;;;;;;7.26;92.53;95778.50;5036694;28;20673;-71
2022/02/15 05:41:10;;;;;;;30.47;8.77;;;;;;;7.26;91.93;95774.28;5036878;28;20228;-71
2022/02/15 05:43:37;;;;;;;33.80;11.60;;;;;;;7.26;91.89;95775.09;5036755;28;20658;-71
2022/02/15 05:46:03;;;;;;;15.47;5.70;;;;;;;7.03;93.14;95783.81;5036690;28;20204;-71
2022/02/15 05:48:31;;;;;;;20.43;9.03;;;;;;;7.12;93.38;95778.38;5037140;28;20205;-71
2022/02/15 05:50:57;;;;;;;10.73;5.83;;;;;;;7.17;92.42;95780.53;5037057;28;20256;-71
2022/02/15 05:53:25;;;;;;;7.20;3.63;;;;;;;7.25;92.86;95777.88;5036060;28;20272;-71
2022/02/15 05:55:52;;;;;;;9.17;4.17;;;;;;;7.09;93.12;95777.91;5036919;28;20586;-71
2022/02/15 05:58:19;;;;;;;13.40;5.03;;;;;;;7.05;93.70;95787.91;5036677;28;20192;-71
2022/02/15 06:00:46;;;;;;;25.50;8.43;;;;;;;7.04;93.60;95780.19;5036855;28;20793;-71
2022/02/15 06:05:54;;;;;;;6.90;4.23;;;;;;;7.31;92.97;95783.25;5024234;28;20213;-71
2022/02/15 06:08:21;;;;;;;6.43;3.47;;;;;;;6.94;93.71;95795.28;5036806;28;20197;-71
2022/02/15 06:10:48;;;;;;;7.20;2.63;;;;;;;7.07;93.88;95791.16;5036213;28;20217;-71
2022/02/15 06:13:14;;;;;;;6.00;3.57;;;;;;;7.04;93.49;95786.28;5035894;28;20228;-71
2022/02/15 06:15:41;;;;;;;11.87;4.83;;;;;;;7.05;93.27;95787.06;5036604;28;20196;-71
2022/02/15 06:18:08;;;;;;;10.80;6.10;;;;;;;7.31;92.46;95789.31;5036894;28;20209;-71
2022/02/15 06:20:34;;;;;;;8.13;4.10;;;;;;;7.20;92.32;95790.66;5036953;28;20240;-71
2022/02/15 06:23:03;;;;;;;7.47;3.50;;;;;;;7.30;93.17;95789.47;5035848;28;20201;-70
2022/02/15 06:25:29;;;;;;;11.80;4.33;;;;;;;7.21;92.67;95793.09;5036468;28;20201;-70
2022/02/15 06:27:56;;;;;;;10.70;4.90;;;;;;;7.10;92.88;95793.44;5036367;28;20236;-70
2022/02/15 06:30:23;;;;;;;11.57;4.67;;;;;;;7.14;92.95;95796.56;5036799;28;20225;-70
2022/02/15 06:32:49;;;;;;;16.40;4.47;;;;;;;7.04;93.26;95801.16;5035884;28;20963;-71
2022/02/15 06:35:16;;;;;;;16.87;6.80;;;;;;;7.21;92.96;95800.97;5036899;28;20605;-70
2022/02/15 06:37:43;;;;;;;15.13;4.30;;;;;;;7.09;93.22;95804.94;5036429;28;20193;-70
2022/02/15 06:40:13;;;;;;;11.53;5.17;;;;;;;7.40;92.35;95806.66;5035817;28;20221;-70
2022/02/15 06:42:39;;;;;;;11.93;4.07;;;;;;;7.31;91.95;95820.75;5034971;28;20205;-70
2022/02/15 06:45:07;;;;;;;9.43;4.77;;;;;;;7.20;92.69;95822.09;5036577;28;20288;-70
2022/02/15 06:47:34;;;;;;;7.70;4.23;;;;;;;6.99;93.07;95820.00;5036850;28;20197;-70
2022/02/15 06:50:00;;;;;;;14.80;3.77;;;;;;;7.19;92.46;95825.69;5035652;28;20252;-70
2022/02/15 06:52:28;;;;;;;6.37;3.53;;;;;;;7.24;92.67;95820.78;5035246;28;20212;-70
2022/02/15 06:54:54;;;;;;;6.87;3.63;;;;;;;7.29;91.75;95817.50;5036480;28;20232;-70
2022/02/15 06:57:22;;;;;;;6.90;3.47;;;;;;;7.45;91.24;95812.19;5036026;28;20209;-70
2022/02/15 06:59:49;;;;;;;6.43;2.77;;;;;;;7.40;91.62;95814.50;5037598;28;20232;-70
2022/02/15 07:02:18;;;;;;;6.77;2.83;;;;;;;7.30;91.42;95821.72;5039630;28;20201;-71
2022/02/15 07:04:45;;;;;;;5.70;2.13;;;;;;;7.23;91.57;95824.38;5039724;28;20202;-70
2022/02/15 07:07:11;;;;;;;6.87;3.20;;;;;;;7.44;90.81;95826.28;5039685;28;21141;-70
2022/02/15 07:09:38;;;;;;;3.97;2.33;;;;;;;7.38;91.15;95837.47;5039276;28;21177;-70
2022/02/15 07:12:06;;;;;;;5.17;3.27;;;;;;;7.32;91.16;95838.13;5039878;28;20584;-70
2022/02/15 07:14:34;;;;;;;8.30;4.27;;;;;;;7.47;92.12;95841.69;5039181;28;20275;-70
2022/02/15 07:17:00;;;;;;;4.97;2.50;;;;;;;7.29;91.94;95850.72;5039576;28;20204;-71
2022/02/15 07:19:29;;;;;;;7.77;3.70;;;;;;;7.37;91.65;95846.31;5039442;28;20228;-70
2022/02/15 07:21:56;;;;;;;8.03;3.13;;;;;;;7.22;91.86;95855.00;5038960;28;20216;-70
2022/02/15 07:24:22;;;;;;;9.63;3.63;;;;;;;7.33;91.70;95857.28;5038759;28;20193;-70
2022/02/15 07:26:49;;;;;;;8.57;4.10;;;;;;;7.35;91.59;95850.88;5038217;28;20209;-70
2022/02/15 07:29:15;;;;;;;6.97;3.37;;;;;;;7.51;90.95;95857.88;5039114;28;20204;-70
2022/02/15 07:31:43;;;;;;;10.87;3.37;;;;;;;7.67;90.98;95860.47;5039428;28;20207;-70
2022/02/15 07:34:10;;;;;;;5.23;2.07;;;;;;;7.43;92.41;95860.53;5038860;28;20228;-70
2022/02/15 07:36:36;;;;;;;6.80;3.53;;;;;;;7.58;92.55;95870.16;5041068;28;20206;-69
2022/02/15 07:39:03;;;;;;;3.53;1.77;;;;;;;7.96;91.84;95875.44;5041283;28;20205;-69
2022/02/15 07:41:30;;;;;;;11.50;5.40;;;;;;;7.60;91.17;95873.44;5038982;28;20896;-70
2022/02/15 07:43:56;;;;;;;8.27;3.77;;;;;;;7.76;89.43;95875.22;5038426;28;20229;-70
2022/02/15 07:46:23;;;;;;;8.30;2.80;;;;;;;7.56;90.03;95881.81;5038792;28;20209;-70
2022/02/15 07:48:51;;;;;;;8.77;4.00;;;;;;;7.64;91.11;95880.00;5039369;28;20228;-71
2022/02/15 07:51:17;;;;;;;6.47;3.27;;;;;;;7.19;92.24;95883.34;5039360;28;20229;-70
2022/02/15 07:53:44;;;;;;;5.77;1.90;;;;;;;7.51;91.63;95895.44;5036455;28;20603;-70
2022/02/15 07:56:11;;;;;;;8.80;3.70;;;;;;;7.44;91.63;95893.63;5036113;28;20208;-70
2022/02/15 07:58:37;;;;;;;6.60;2.73;;;;;;;7.38;91.31;95891.66;5036651;28;20201;-70
2022/02/15 08:01:04;;;;;;;6.20;3.13;;;;;;;7.46;91.58;95895.09;5037107;28;21040;-70
2022/02/15 08:03:32;;;;;;;5.80;3.27;;;;;;;7.27;92.06;95903.31;5038405;28;20204;-70
2022/02/15 08:05:59;;;;;;;5.80;2.47;;;;;;;7.72;91.59;95903.56;5037388;28;20202;-70
2022/02/15 08:08:26;;;;;;;6.13;2.50;;;;;;;7.32;91.81;95908.88;5037793;28;20212;-70
2022/02/15 08:10:56;;;;;;;7.97;2.77;;;;;;;7.36;92.01;95909.38;5036834;28;20233;-70
2022/02/15 08:13:23;;;;;;;4.97;2.97;;;;;;;7.44;91.60;95902.31;5037174;28;20282;-70
2022/02/15 08:15:51;;;;;;;5.43;2.63;;;;;;;7.54;91.44;95904.75;5037930;28;20197;-70
2022/02/15 08:18:18;;;;;;;4.33;2.70;;;;;;;7.53;91.69;95914.41;5037858;28;20220;-70
2022/02/15 08:20:45;;;;;;;5.33;2.63;;;;;;;7.58;91.61;95906.88;5037348;28;20217;-70
2022/02/15 08:23:12;;;;;;;3.80;2.50;;;;;;;7.52;92.30;95906.72;5037048;28;20426;-71
2022/02/15 08:25:39;;;;;;;4.73;2.60;;;;;;;7.69;90.62;95909.16;5038162;28;20201;-71
2022/02/15 08:28:06;;;;;;;6.10;3.20;;;;;;;7.59;90.86;95918.19;5037765;28;20685;-71
2022/02/15 08:30:32;;;;;;;7.57;3.10;;;;;;;7.61;91.08;95909.19;5037577;28;20221;-71
2022/02/15 08:32:59;;;;;;;7.10;3.43;;;;;;;7.51;90.81;95911.16;5037291;28;20197;-73
2022/02/15 08:35:25;;;;;;;4.07;2.87;;;;;;;7.46;91.17;95912.66;5037631;28;20603;-71
2022/02/15 08:37:52;;;;;;;8.80;3.87;;;;;;;7.47;91.25;95907.22;5037508;28;20220;-71
2022/02/15 08:40:21;;;;;;;6.80;3.40;;;;;;;7.64;91.35;95915.91;5037061;28;20597;-71
2022/02/15 08:42:47;;;;;;;5.80;2.93;;;;;;;7.61;90.74;95921.44;5036991;28;20286;-71
2022/02/15 08:45:14;;;;;;;6.53;2.70;;;;;;;7.33;92.31;95926.25;5037407;28;20569;-71
2022/02/15 08:47:41;;;;;;;6.03;3.00;;;;;;;7.46;92.00;95923.94;5037493;28;20197;-71
2022/02/15 08:50:09;;;;;;;6.90;3.57;;;;;;;7.63;92.40;95928.16;5037039;28;20225;-71
2022/02/15 08:52:37;;;;;;;5.70;2.73;;;;;;;7.51;92.46;95926.06;5036525;28;21081;-71
2022/02/15 08:55:04;;;;;;;7.20;3.70;;;;;;;7.51;92.01;95931.28;5037330;28;20253;-71
2022/02/15 08:57:31;;;;;;;17.17;3.77;;;;;;;7.79;90.96;95930.78;5037673;28;20514;-70
2022/02/15 08:59:58;;;;;;;5.73;3.00;;;;;;;7.55;91.87;95933.44;5036477;28;20225;-70
2022/02/15 09:02:26;;;;;;;4.83;2.90;;;;;;;7.48;91.88;95932.44;5036551;28;20201;-70
2022/02/15 09:04:53;;;;;;;4.67;2.60;;;;;;;7.65;90.63;95936.69;5037758;28;20661;-70
2022/02/15 09:07:20;;;;;;;6.43;2.87;;;;;;;7.72;90.91;95940.28;5036264;28;20217;-70
2022/02/15 09:09:46;;;;;;;5.57;3.03;;;;;;;7.88;90.57;95948.13;5036567;28;20243;-71
2022/02/15 09:12:13;;;;;;;9.03;4.10;;;;;;;7.81;90.03;95952.38;5037012;28;20201;-70
2022/02/15 09:14:40;;;;;;;6.10;3.33;;;;;;;7.98;90.26;95946.13;5036770;28;20220;-70
2022/02/15 09:17:07;;;;;;;7.27;2.93;;;;;;;8.26;89.02;95944.75;5036594;28;20975;-70
2022/02/15 09:19:35;;;;;;;6.87;3.27;;;;;;;8.22;88.97;95953.94;5036432;28;20224;-70
2022/02/15 09:22:03;;;;;;;10.73;3.53;;;;;;;8.11;88.51;95949.06;5037192;28;20212;-70
2022/02/15 09:24:30;;;;;;;12.43;4.77;;;;;;;7.92;89.36;95952.06;5035712;28;20239;-70
2022/02/15 09:26:57;;;;;;;6.97;3.67;;;;;;;7.92;90.33;95958.09;5036089;28;20212;-70
2022/02/15 09:29:23;;;;;;;6.63;3.43;;;;;;;8.04;89.47;95954.16;5036731;28;20944;-70
2022/02/15 09:31:52;;;;;;;6.07;2.90;;;;;;;8.10;89.41;95953.47;5036707;28;20560;-70
2022/02/15 09:34:22;;;;;;;9.07;4.07;;;;;;;8.09;88.92;95948.38;5035730;28;20501;-70
2022/02/15 09:36:49;;;;;;;8.27;3.80;;;;;;;7.94;89.47;95958.78;5036534;28;20288;-70
2022/02/15 09:39:16;;;;;;;8.10;4.23;;;;;;;7.98;89.84;95953.97;5036002;28;20198;-70
2022/02/15 09:41:42;;;;;;;7.10;3.07;;;;;;;8.06;89.01;95951.38;5036247;28;20669;-70
2022/02/15 09:44:09;;;;;;;17.17;4.30;;;;;;;8.04;89.11;95956.78;5035715;28;20908;-70
2022/02/15 09:46:35;;;;;;;10.17;2.80;;;;;;;7.91;89.41;95974.03;5036070;28;20456;-71
2022/02/15 09:49:06;;;;;;;6.27;2.03;;;;;;;7.99;89.35;95968.75;5036207;28;20212;-71
2022/02/15 09:51:33;;;;;;;4.20;2.60;;;;;;;7.81;90.46;95978.63;5032988;28;20263;-70
2022/02/15 09:53:59;;;;;;;5.43;3.33;;;;;;;7.96;89.82;95974.34;5035334;28;20488;-70
2022/02/15 09:56:26;;;;;;;8.87;4.30;;;;;;;7.91;88.83;95976.63;5035906;28;20201;-70
2022/02/15 09:58:52;;;;;;;9.80;3.50;;;;;;;7.89;88.92;95982.06;5035936;28;20506;-70
2022/02/15 10:01:18;;;;;;;6.47;2.33;;;;;;;7.93;88.70;95987.81;5036138;28;20239;-70
2022/02/15 10:03:49;;;;;;;7.43;3.33;;;;;;;8.21;88.74;95995.13;5035217;28;20201;-70
2022/02/15 10:06:17;;;;;;;15.30;3.20;;;;;;;7.98;89.29;95988.09;5036142;28;20229;-70
2022/02/15 10:08:45;;;;;;;4.80;2.27;;;;;;;8.20;88.88;95997.94;5036094;28;20205;-71
2022/02/15 10:11:13;;;;;;;5.33;2.37;;;;;;;8.12;88.71;96000.53;5035688;28;20413;-71
2022/02/15 10:13:44;;;;;;;4.60;2.57;;;;;;;8.23;89.09;95998.41;5035855;28;20232;-71
2022/02/15 10:16:10;;;;;;;2.27;1.67;;;;;;;7.97;89.24;96008.28;5035972;28;20665;-71
2022/02/15 10:18:37;;;;;;;12.10;3.00;;;;;;;8.14;88.83;96009.91;5035815;28;20212;-71
2022/02/15 10:21:05;;;;;;;4.40;2.50;;;;;;;8.01;88.68;96019.25;5036162;28;20221;-71
2022/02/15 10:23:34;;;;;;;5.60;3.00;;;;;;;8.19;89.07;96015.47;5035911;28;20231;-71
2022/02/15 10:26:03;;;;;;;4.13;2.30;;;;;;;8.24;87.92;96017.59;5035619;28;21040;-73
2022/02/15 10:28:32;;;;;;;6.73;2.73;;;;;;;8.38;87.16;96016.91;5035322;28;20663;-71
2022/02/15 10:31:00;;;;;;;2.60;1.83;;;;;;;8.30;87.45;96020.38;5035390;28;20220;-71
2022/02/15 10:33:30;;;;;;;8.60;3.40;;;;;;;8.48;86.87;96017.50;5035928;28;20201;-71
2022/02/15 10:35:59;;;;;;;5.90;2.97;;;;;;;8.33;86.83;96024.47;5039602;28;20315;-71
2022/02/15 10:38:27;;;;;;;4.80;2.37;;;;;;;8.61;86.64;96019.44;5040062;28;20201;-71
2022/02/15 10:41:00;;;;;;;7.63;3.23;;;;;;;8.56;87.13;96015.69;5039827;28;20308;-71
2022/02/15 10:43:27;;;;;;;3.10;2.17;;;;;;;8.34;87.49;96010.34;5038878;28;20666;-71
2022/02/15 10:45:54;;;;;;;8.20;3.17;;;;;;;8.38;86.74;96016.91;5040008;28;20263;-71
2022/02/15 10:48:29;;;;;;;4.43;1.70;;;;;;;8.54;86.25;96015.88;5039423;28;20201;-71
2022/02/15 10:50:56;;;;;;;9.27;3.50;;;;;;;8.66;86.11;96006.59;5035977;28;20318;-71
2022/02/15 10:53:23;;;;;;;9.33;3.70;;;;;;;8.85;85.53;96006.19;5039052;28;20205;-71
2022/02/15 10:55:50;;;;;;;5.23;2.67;;;;;;;8.71;84.84;96006.91;5039627;28;20228;-71
2022/02/15 10:58:19;;;;;;;5.37;2.73;;;;;;;9.21;84.31;95997.59;5039302;28;20202;-71
2022/02/15 11:00:46;;;;;;;5.30;2.17;;;;;;;8.82;83.58;95982.91;5039050;28;20220;-71
2022/02/15 11:03:15;;;;;;;11.20;4.27;;;;;;;9.22;82.30;95993.97;5039112;28;20205;-71
2022/02/15 11:05:42;;;;;;;6.10;2.93;;;;;;;9.16;82.65;95980.72;5039314;28;20197;-71
2022/02/15 11:08:08;;;;;;;7.93;3.00;;;;;;;9.29;82.36;95986.22;5039620;28;20209;-71
2022/02/15 11:10:45;;;;;;;4.93;2.63;;;;;;;9.46;80.75;95980.66;5038995;28;20705;-71
2022/02/15 11:13:12;;;;;;;4.97;2.10;;;;;;;9.16;81.66;95978.94;5038078;28;20385;-71
2022/02/15 11:15:41;;;;;;;3.43;1.80;;;;;;;9.39;81.06;95979.72;5039093;28;20982;-71
2022/02/15 11:18:10;;;;;;;2.57;1.30;;;;;;;9.15;81.35;95987.78;5039103;28;20284;-71
2022/02/15 11:20:51;;;;;;;4.20;2.00;;;;;;;9.20;81.88;95982.84;5038691;28;20225;-71
2022/02/15 11:23:19;;;;;;;7.47;3.03;;;;;;;9.48;80.66;95985.75;5038340;28;20258;-71
2022/02/15 11:25:46;;;;;;;6.67;3.43;;;;;;;9.31;81.15;95992.94;5039081;28;20213;-71
2022/02/15 11:28:14;;;;;;;7.37;2.20;;;;;;;9.45;80.96;95994.00;5038705;28;20197;-71
2022/02/15 11:30:53;;;;;;;4.83;2.17;;;;;;;9.66;80.08;95991.50;5038407;28;20217;-72
2022/02/15 11:33:22;;;;;;;4.70;1.63;;;;;;;9.29;80.98;95991.47;5038933;28;20622;-71
2022/02/15 11:35:53;;;;;;;6.07;2.23;;;;;;;9.22;80.72;95993.16;5038405;28;20229;-71
2022/02/15 11:38:20;;;;;;;4.27;2.60;;;;;;;9.04;81.71;96005.78;5037755;28;20205;-71
2022/02/15 11:40:57;;;;;;;4.87;2.43;;;;;;;9.19;81.97;96010.09;5038492;28;20510;-71
2022/02/15 11:43:23;;;;;;;4.77;1.97;;;;;;;8.87;81.31;96006.84;5038664;28;20568;-73
2022/02/15 11:45:51;;;;;;;1.30;1.00;;;;;;;8.45;83.78;96017.88;5037899;28;20525;-71
2022/02/15 11:48:18;;;;;;;2.03;1.47;;;;;;;8.00;84.97;96026.28;5038269;28;20211;-71
2022/02/15 11:50:47;;;;;;;3.83;1.70;;;;;;;8.16;85.82;96014.97;5036274;28;20670;-73
2022/02/15 11:53:16;;;;;;;2.40;1.20;;;;;;;8.34;86.95;96016.44;5038081;28;20205;-73